sensor_id;sensor_type;location;lat;lon;timestamp;P1;durP1;ratioP1;P2;durP2;ratioP2
29380;SDS011;16364;52.490;13.326;2023-09-19T00:01:40;2.73;;;2.03;;
29380;SDS011;16364;52.490;13.326;2023-09-19T00:04:07;2.73;;;1.90;;
29380;SDS011;16364;52.490;13.326;2023-09-19T00:06:34;2.13;;;1.87;;
29380;SDS011;16364;52.490;13.326;2023-09-19T00:09:00;1.80;;;1.50;;
29380;SDS011;16364;52.490;13.326;2023-09-19T00:11:25;3.27;;;1.70;;
29380;SDS011;16364;52.490;13.326;2023-09-19T00:13:51;2.83;;;1.70;;
29380;SDS011;16364;52.490;13.326;2023-09-19T00:16:17;1.50;;;1.33;;
29380;SDS011;16364;52.490;13.326;2023-09-19T00:18:44;3.03;;;1.60;;
29380;SDS011;16364;52.490;13.326;2023-09-19T00:21:09;1.80;;;1.70;;
29380;SDS011;16364;52.490;13.326;2023-09-19T00:23:35;1.80;;;1.70;;
29380;SDS011;16364;52.490;13.326;2023-09-19T00:26:00;4.43;;;1.90;;
29380;SDS011;16364;52.490;13.326;2023-09-19T00:28:26;2.13;;;1.80;;
29380;SDS011;16364;52.490;13.326;2023-09-19T00:30:52;2.47;;;1.80;;
29380;SDS011;16364;52.490;13.326;2023-09-19T00:33:20;2.87;;;1.47;;
29380;SDS011;16364;52.490;13.326;2023-09-19T00:38:13;3.43;;;1.73;;
29380;SDS011;16364;52.490;13.326;2023-09-19T00:40:43;3.73;;;1.93;;
29380;SDS011;16364;52.490;13.326;2023-09-19T00:43:08;4.10;;;1.60;;
29380;SDS011;16364;52.490;13.326;2023-09-19T00:45:35;6.10;;;1.60;;
29380;SDS011;16364;52.490;13.326;2023-09-19T00:48:02;1.80;;;1.70;;
29380;SDS011;16364;52.490;13.326;2023-09-19T00:50:28;3.07;;;1.80;;
29380;SDS011;16364;52.490;13.326;2023-09-19T00:52:54;2.53;;;1.87;;
29380;SDS011;16364;52.490;13.326;2023-09-19T00:55:22;2.03;;;1.83;;
29380;SDS011;16364;52.490;13.326;2023-09-19T00:57:48;2.37;;;1.80;;
29380;SDS011;16364;52.490;13.326;2023-09-19T01:00:18;2.50;;;1.60;;
29380;SDS011;16364;52.490;13.326;2023-09-19T01:02:45;2.40;;;2.13;;
29380;SDS011;16364;52.490;13.326;2023-09-19T01:05:10;2.17;;;1.60;;
29380;SDS011;16364;52.490;13.326;2023-09-19T01:07:36;1.60;;;1.50;;
29380;SDS011;16364;52.490;13.326;2023-09-19T01:10:06;2.93;;;2.20;;
29380;SDS011;16364;52.490;13.326;2023-09-19T01:18:02;2.17;;;1.60;;
29380;SDS011;16364;52.490;13.326;2023-09-19T01:23:00;2.03;;;1.60;;
29380;SDS011;16364;52.490;13.326;2023-09-19T01:30:32;2.67;;;1.63;;
29380;SDS011;16364;52.490;13.326;2023-09-19T01:32:58;3.87;;;1.47;;
29380;SDS011;16364;52.490;13.326;2023-09-19T01:35:24;1.80;;;1.70;;
29380;SDS011;16364;52.490;13.326;2023-09-19T01:37:49;2.10;;;1.70;;
29380;SDS011;16364;52.490;13.326;2023-09-19T01:40:15;2.80;;;1.63;;
29380;SDS011;16364;52.490;13.326;2023-09-19T01:42:49;2.60;;;1.70;;
29380;SDS011;16364;52.490;13.326;2023-09-19T01:47:54;1.70;;;1.40;;
29380;SDS011;16364;52.490;13.326;2023-09-19T01:50:38;2.10;;;1.90;;
29380;SDS011;16364;52.490;13.326;2023-09-19T01:53:07;5.63;;;2.00;;
29380;SDS011;16364;52.490;13.326;2023-09-19T01:55:36;3.37;;;1.63;;
29380;SDS011;16364;52.490;13.326;2023-09-19T01:58:14;1.60;;;1.50;;
29380;SDS011;16364;52.490;13.326;2023-09-19T02:00:41;1.83;;;1.60;;
29380;SDS011;16364;52.490;13.326;2023-09-19T02:03:08;2.17;;;1.60;;
29380;SDS011;16364;52.490;13.326;2023-09-19T02:05:33;2.53;;;1.40;;
29380;SDS011;16364;52.490;13.326;2023-09-19T02:08:01;2.57;;;1.87;;
29380;SDS011;16364;52.490;13.326;2023-09-19T02:10:26;3.40;;;2.00;;
29380;SDS011;16364;52.490;13.326;2023-09-19T02:12:51;5.03;;;2.23;;
29380;SDS011;16364;52.490;13.326;2023-09-19T02:15:16;2.00;;;1.80;;
29380;SDS011;16364;52.490;13.326;2023-09-19T02:17:42;1.57;;;1.40;;
29380;SDS011;16364;52.490;13.326;2023-09-19T02:20:08;2.17;;;1.60;;
29380;SDS011;16364;52.490;13.326;2023-09-19T02:22:40;2.63;;;1.63;;
29380;SDS011;16364;52.490;13.326;2023-09-19T02:25:05;6.13;;;1.77;;
29380;SDS011;16364;52.490;13.326;2023-09-19T02:27:32;1.90;;;1.67;;
29380;SDS011;16364;52.490;13.326;2023-09-19T02:29:57;2.20;;;1.80;;
29380;SDS011;16364;52.490;13.326;2023-09-19T02:32:23;3.00;;;1.50;;
29380;SDS011;16364;52.490;13.326;2023-09-19T02:34:48;2.60;;;1.90;;
29380;SDS011;16364;52.490;13.326;2023-09-19T02:37:13;2.63;;;1.70;;
29380;SDS011;16364;52.490;13.326;2023-09-19T02:39:45;2.60;;;1.63;;
29380;SDS011;16364;52.490;13.326;2023-09-19T02:42:11;4.17;;;1.97;;
29380;SDS011;16364;52.490;13.326;2023-09-19T02:44:36;3.70;;;2.27;;
29380;SDS011;16364;52.490;13.326;2023-09-19T02:47:03;2.53;;;1.47;;
29380;SDS011;16364;52.490;13.326;2023-09-19T02:49:28;2.23;;;1.40;;
29380;SDS011;16364;52.490;13.326;2023-09-19T02:51:54;3.47;;;2.20;;
29380;SDS011;16364;52.490;13.326;2023-09-19T02:54:19;1.90;;;1.60;;
29380;SDS011;16364;52.490;13.326;2023-09-19T02:57:00;5.00;;;2.07;;
29380;SDS011;16364;52.490;13.326;2023-09-19T02:59:25;1.60;;;1.43;;
29380;SDS011;16364;52.490;13.326;2023-09-19T03:01:51;2.40;;;1.67;;
29380;SDS011;16364;52.490;13.326;2023-09-19T03:04:16;4.70;;;1.30;;
29380;SDS011;16364;52.490;13.326;2023-09-19T03:06:45;1.93;;;1.40;;
29380;SDS011;16364;52.490;13.326;2023-09-19T03:09:11;1.67;;;1.50;;
29380;SDS011;16364;52.490;13.326;2023-09-19T03:11:37;1.80;;;1.70;;
29380;SDS011;16364;52.490;13.326;2023-09-19T03:14:02;5.03;;;1.70;;
29380;SDS011;16364;52.490;13.326;2023-09-19T03:16:27;4.20;;;1.60;;
29380;SDS011;16364;52.490;13.326;2023-09-19T03:18:53;3.67;;;1.83;;
29380;SDS011;16364;52.490;13.326;2023-09-19T03:21:18;1.70;;;1.57;;
29380;SDS011;16364;52.490;13.326;2023-09-19T03:26:43;2.50;;;1.87;;
29380;SDS011;16364;52.490;13.326;2023-09-19T03:29:10;2.67;;;1.63;;
29380;SDS011;16364;52.490;13.326;2023-09-19T03:31:36;2.03;;;1.50;;
29380;SDS011;16364;52.490;13.326;2023-09-19T03:34:02;2.30;;;1.60;;
29380;SDS011;16364;52.490;13.326;2023-09-19T03:36:29;2.90;;;1.50;;
29380;SDS011;16364;52.490;13.326;2023-09-19T03:38:54;2.00;;;1.40;;
29380;SDS011;16364;52.490;13.326;2023-09-19T03:41:19;3.67;;;1.43;;
29380;SDS011;16364;52.490;13.326;2023-09-19T03:43:45;1.80;;;1.60;;
29380;SDS011;16364;52.490;13.326;2023-09-19T03:46:10;2.50;;;1.53;;
29380;SDS011;16364;52.490;13.326;2023-09-19T03:48:37;4.50;;;1.50;;
29380;SDS011;16364;52.490;13.326;2023-09-19T03:51:03;2.70;;;1.40;;
29380;SDS011;16364;52.490;13.326;2023-09-19T03:53:28;1.50;;;1.30;;
29380;SDS011;16364;52.490;13.326;2023-09-19T03:55:53;1.90;;;1.40;;
29380;SDS011;16364;52.490;13.326;2023-09-19T03:58:19;2.70;;;1.33;;
29380;SDS011;16364;52.490;13.326;2023-09-19T04:00:45;1.40;;;1.30;;
29380;SDS011;16364;52.490;13.326;2023-09-19T04:03:13;1.40;;;1.30;;
29380;SDS011;16364;52.490;13.326;2023-09-19T04:05:45;1.30;;;1.20;;
29380;SDS011;16364;52.490;13.326;2023-09-19T04:08:11;1.77;;;1.30;;
29380;SDS011;16364;52.490;13.326;2023-09-19T04:10:37;1.60;;;1.30;;
29380;SDS011;16364;52.490;13.326;2023-09-19T04:13:02;10.20;;;1.50;;
29380;SDS011;16364;52.490;13.326;2023-09-19T04:15:29;2.00;;;1.63;;
29380;SDS011;16364;52.490;13.326;2023-09-19T04:17:55;5.10;;;1.57;;
29380;SDS011;16364;52.490;13.326;2023-09-19T04:20:20;3.73;;;1.37;;
29380;SDS011;16364;52.490;13.326;2023-09-19T04:22:47;1.70;;;1.40;;
29380;SDS011;16364;52.490;13.326;2023-09-19T04:25:12;2.47;;;1.40;;
29380;SDS011;16364;52.490;13.326;2023-09-19T04:27:38;1.53;;;1.43;;
29380;SDS011;16364;52.490;13.326;2023-09-19T04:30:04;1.27;;;1.17;;
29380;SDS011;16364;52.490;13.326;2023-09-19T04:32:35;1.50;;;1.23;;
29380;SDS011;16364;52.490;13.326;2023-09-19T04:35:01;1.43;;;1.33;;
29380;SDS011;16364;52.490;13.326;2023-09-19T04:37:30;1.40;;;1.30;;
29380;SDS011;16364;52.490;13.326;2023-09-19T04:39:55;1.33;;;1.10;;
29380;SDS011;16364;52.490;13.326;2023-09-19T04:42:21;1.40;;;1.30;;
29380;SDS011;16364;52.490;13.326;2023-09-19T04:44:50;3.20;;;1.40;;
29380;SDS011;16364;52.490;13.326;2023-09-19T04:47:15;1.87;;;1.47;;
29380;SDS011;16364;52.490;13.326;2023-09-19T04:49:41;4.50;;;1.37;;
29380;SDS011;16364;52.490;13.326;2023-09-19T04:52:06;1.67;;;1.57;;
29380;SDS011;16364;52.490;13.326;2023-09-19T04:54:32;1.97;;;1.40;;
29380;SDS011;16364;52.490;13.326;2023-09-19T04:56:58;1.50;;;1.20;;
29380;SDS011;16364;52.490;13.326;2023-09-19T04:59:24;1.30;;;1.20;;
29380;SDS011;16364;52.490;13.326;2023-09-19T05:01:49;2.30;;;1.40;;
29380;SDS011;16364;52.490;13.326;2023-09-19T05:04:16;1.30;;;1.20;;
29380;SDS011;16364;52.490;13.326;2023-09-19T05:06:41;1.50;;;1.20;;
29380;SDS011;16364;52.490;13.326;2023-09-19T05:09:06;1.80;;;1.30;;
29380;SDS011;16364;52.490;13.326;2023-09-19T05:11:31;1.90;;;1.60;;
29380;SDS011;16364;52.490;13.326;2023-09-19T05:13:58;2.10;;;1.43;;
29380;SDS011;16364;52.490;13.326;2023-09-19T05:16:28;1.70;;;1.50;;
29380;SDS011;16364;52.490;13.326;2023-09-19T05:18:54;1.60;;;1.30;;
29380;SDS011;16364;52.490;13.326;2023-09-19T05:21:19;2.50;;;1.53;;
29380;SDS011;16364;52.490;13.326;2023-09-19T05:23:45;3.07;;;1.57;;
29380;SDS011;16364;52.490;13.326;2023-09-19T05:26:10;2.87;;;1.50;;
29380;SDS011;16364;52.490;13.326;2023-09-19T05:28:36;4.37;;;1.50;;
29380;SDS011;16364;52.490;13.326;2023-09-19T05:31:02;1.33;;;1.23;;
29380;SDS011;16364;52.490;13.326;2023-09-19T05:33:28;1.50;;;1.40;;
29380;SDS011;16364;52.490;13.326;2023-09-19T05:35:54;1.50;;;1.40;;
29380;SDS011;16364;52.490;13.326;2023-09-19T05:38:21;2.70;;;1.60;;
29380;SDS011;16364;52.490;13.326;2023-09-19T05:40:46;3.07;;;1.37;;
29380;SDS011;16364;52.490;13.326;2023-09-19T05:43:13;3.37;;;1.43;;
29380;SDS011;16364;52.490;13.326;2023-09-19T05:45:39;2.37;;;1.57;;
29380;SDS011;16364;52.490;13.326;2023-09-19T05:48:13;1.40;;;1.30;;
29380;SDS011;16364;52.490;13.326;2023-09-19T05:50:38;2.33;;;1.90;;
29380;SDS011;16364;52.490;13.326;2023-09-19T05:53:04;1.40;;;1.30;;
29380;SDS011;16364;52.490;13.326;2023-09-19T05:55:29;3.73;;;1.53;;
29380;SDS011;16364;52.490;13.326;2023-09-19T05:57:55;1.80;;;1.40;;
29380;SDS011;16364;52.490;13.326;2023-09-19T06:00:20;4.80;;;1.80;;
29380;SDS011;16364;52.490;13.326;2023-09-19T06:02:54;4.07;;;1.90;;
29380;SDS011;16364;52.490;13.326;2023-09-19T06:05:21;1.70;;;1.37;;
29380;SDS011;16364;52.490;13.326;2023-09-19T06:07:47;1.40;;;1.30;;
29380;SDS011;16364;52.490;13.326;2023-09-19T06:10:15;4.60;;;1.50;;
29380;SDS011;16364;52.490;13.326;2023-09-19T06:12:42;1.80;;;1.43;;
29380;SDS011;16364;52.490;13.326;2023-09-19T06:15:11;2.30;;;1.30;;
29380;SDS011;16364;52.490;13.326;2023-09-19T06:18:02;2.40;;;1.40;;
29380;SDS011;16364;52.490;13.326;2023-09-19T06:20:30;3.20;;;2.13;;
29380;SDS011;16364;52.490;13.326;2023-09-19T06:22:56;1.87;;;1.70;;
29380;SDS011;16364;52.490;13.326;2023-09-19T06:25:21;4.33;;;1.67;;
29380;SDS011;16364;52.490;13.326;2023-09-19T06:27:51;3.87;;;1.60;;
29380;SDS011;16364;52.490;13.326;2023-09-19T06:30:19;2.07;;;1.87;;
29380;SDS011;16364;52.490;13.326;2023-09-19T06:32:44;1.50;;;1.33;;
29380;SDS011;16364;52.490;13.326;2023-09-19T06:35:10;5.00;;;1.80;;
29380;SDS011;16364;52.490;13.326;2023-09-19T06:37:36;2.33;;;1.90;;
29380;SDS011;16364;52.490;13.326;2023-09-19T06:40:04;4.00;;;2.03;;
29380;SDS011;16364;52.490;13.326;2023-09-19T06:42:30;1.60;;;1.50;;
29380;SDS011;16364;52.490;13.326;2023-09-19T06:44:56;4.00;;;1.80;;
29380;SDS011;16364;52.490;13.326;2023-09-19T06:47:21;2.63;;;1.90;;
29380;SDS011;16364;52.490;13.326;2023-09-19T06:49:46;3.27;;;1.50;;
29380;SDS011;16364;52.490;13.326;2023-09-19T06:52:12;3.83;;;1.57;;
29380;SDS011;16364;52.490;13.326;2023-09-19T06:54:37;4.50;;;1.60;;
29380;SDS011;16364;52.490;13.326;2023-09-19T06:57:02;3.07;;;1.40;;
29380;SDS011;16364;52.490;13.326;2023-09-19T06:59:28;5.63;;;1.80;;
29380;SDS011;16364;52.490;13.326;2023-09-19T07:01:53;2.03;;;1.60;;
29380;SDS011;16364;52.490;13.326;2023-09-19T07:04:18;2.10;;;1.90;;
29380;SDS011;16364;52.490;13.326;2023-09-19T07:06:50;3.20;;;1.90;;
29380;SDS011;16364;52.490;13.326;2023-09-19T07:09:16;1.73;;;1.60;;
29380;SDS011;16364;52.490;13.326;2023-09-19T07:11:41;2.00;;;1.60;;
29380;SDS011;16364;52.490;13.326;2023-09-19T07:14:07;2.90;;;1.90;;
29380;SDS011;16364;52.490;13.326;2023-09-19T07:16:33;3.10;;;1.77;;
29380;SDS011;16364;52.490;13.326;2023-09-19T07:18:58;2.13;;;1.50;;
29380;SDS011;16364;52.490;13.326;2023-09-19T07:21:24;2.70;;;1.80;;
29380;SDS011;16364;52.490;13.326;2023-09-19T07:23:49;1.80;;;1.60;;
29380;SDS011;16364;52.490;13.326;2023-09-19T07:26:15;3.30;;;1.50;;
29380;SDS011;16364;52.490;13.326;2023-09-19T07:28:40;3.87;;;1.90;;
29380;SDS011;16364;52.490;13.326;2023-09-19T07:31:05;2.13;;;1.60;;
29380;SDS011;16364;52.490;13.326;2023-09-19T07:33:34;3.50;;;2.07;;
29380;SDS011;16364;52.490;13.326;2023-09-19T07:36:01;3.03;;;1.90;;
29380;SDS011;16364;52.490;13.326;2023-09-19T07:38:26;2.17;;;1.97;;
29380;SDS011;16364;52.490;13.326;2023-09-19T07:40:51;2.30;;;2.10;;
29380;SDS011;16364;52.490;13.326;2023-09-19T07:43:17;2.60;;;2.37;;
29380;SDS011;16364;52.490;13.326;2023-09-19T07:45:43;2.73;;;2.53;;
29380;SDS011;16364;52.490;13.326;2023-09-19T07:48:08;3.70;;;1.90;;
29380;SDS011;16364;52.490;13.326;2023-09-19T07:50:39;3.70;;;2.30;;
29380;SDS011;16364;52.490;13.326;2023-09-19T07:53:04;4.43;;;2.63;;
29380;SDS011;16364;52.490;13.326;2023-09-19T07:55:30;4.50;;;2.33;;
29380;SDS011;16364;52.490;13.326;2023-09-19T07:57:55;4.53;;;2.10;;
29380;SDS011;16364;52.490;13.326;2023-09-19T08:00:21;2.70;;;2.17;;
29380;SDS011;16364;52.490;13.326;2023-09-19T08:02:47;4.87;;;2.20;;
29380;SDS011;16364;52.490;13.326;2023-09-19T08:05:13;9.20;;;2.50;;
29380;SDS011;16364;52.490;13.326;2023-09-19T08:07:42;3.03;;;2.23;;
29380;SDS011;16364;52.490;13.326;2023-09-19T08:10:08;2.07;;;1.87;;
29380;SDS011;16364;52.490;13.326;2023-09-19T08:12:38;2.30;;;2.10;;
29380;SDS011;16364;52.490;13.326;2023-09-19T08:15:11;2.17;;;1.97;;
29380;SDS011;16364;52.490;13.326;2023-09-19T08:17:36;3.00;;;1.90;;
29380;SDS011;16364;52.490;13.326;2023-09-19T08:20:01;2.80;;;1.80;;
29380;SDS011;16364;52.490;13.326;2023-09-19T08:22:30;3.97;;;1.90;;
29380;SDS011;16364;52.490;13.326;2023-09-19T08:24:57;3.50;;;2.17;;
29380;SDS011;16364;52.490;13.326;2023-09-19T08:27:24;4.70;;;2.10;;
29380;SDS011;16364;52.490;13.326;2023-09-19T08:29:52;3.70;;;1.80;;
29380;SDS011;16364;52.490;13.326;2023-09-19T08:32:17;2.53;;;2.20;;
29380;SDS011;16364;52.490;13.326;2023-09-19T08:34:44;3.00;;;2.33;;
29380;SDS011;16364;52.490;13.326;2023-09-19T08:37:13;4.80;;;2.03;;
29380;SDS011;16364;52.490;13.326;2023-09-19T08:39:39;4.50;;;2.57;;
29380;SDS011;16364;52.490;13.326;2023-09-19T08:42:05;2.70;;;2.50;;
29380;SDS011;16364;52.490;13.326;2023-09-19T08:44:35;4.07;;;2.00;;
29380;SDS011;16364;52.490;13.326;2023-09-19T08:47:15;3.07;;;2.47;;
29380;SDS011;16364;52.490;13.326;2023-09-19T08:50:26;3.77;;;2.47;;
29380;SDS011;16364;52.490;13.326;2023-09-19T08:52:43;3.23;;;2.43;;
29380;SDS011;16364;52.490;13.326;2023-09-19T08:55:10;6.43;;;2.33;;
29380;SDS011;16364;52.490;13.326;2023-09-19T08:57:36;3.07;;;2.20;;
29380;SDS011;16364;52.490;13.326;2023-09-19T09:00:07;4.57;;;2.37;;
29380;SDS011;16364;52.490;13.326;2023-09-19T09:02:37;5.63;;;2.67;;
29380;SDS011;16364;52.490;13.326;2023-09-19T09:05:06;2.27;;;2.07;;
29380;SDS011;16364;52.490;13.326;2023-09-19T09:07:32;5.83;;;2.10;;
29380;SDS011;16364;52.490;13.326;2023-09-19T09:10:00;3.83;;;2.70;;
29380;SDS011;16364;52.490;13.326;2023-09-19T09:12:28;2.50;;;2.10;;
29380;SDS011;16364;52.490;13.326;2023-09-19T09:14:54;4.40;;;2.30;;
29380;SDS011;16364;52.490;13.326;2023-09-19T09:17:19;3.70;;;2.33;;
29380;SDS011;16364;52.490;13.326;2023-09-19T09:19:45;2.60;;;2.40;;
29380;SDS011;16364;52.490;13.326;2023-09-19T09:22:11;4.80;;;2.50;;
29380;SDS011;16364;52.490;13.326;2023-09-19T09:24:37;3.13;;;2.30;;
29380;SDS011;16364;52.490;13.326;2023-09-19T09:27:05;6.63;;;3.17;;
29380;SDS011;16364;52.490;13.326;2023-09-19T09:29:42;5.30;;;3.10;;
29380;SDS011;16364;52.490;13.326;2023-09-19T09:34:52;5.23;;;2.27;;
29380;SDS011;16364;52.490;13.326;2023-09-19T09:37:17;5.70;;;2.23;;
29380;SDS011;16364;52.490;13.326;2023-09-19T09:39:51;5.50;;;2.23;;
29380;SDS011;16364;52.490;13.326;2023-09-19T09:42:35;3.80;;;2.77;;
29380;SDS011;16364;52.490;13.326;2023-09-19T09:45:17;2.40;;;2.20;;
29380;SDS011;16364;52.490;13.326;2023-09-19T09:47:43;5.70;;;2.20;;
29380;SDS011;16364;52.490;13.326;2023-09-19T09:50:23;3.23;;;2.23;;
29380;SDS011;16364;52.490;13.326;2023-09-19T09:52:54;6.57;;;2.83;;
29380;SDS011;16364;52.490;13.326;2023-09-19T09:55:27;4.53;;;2.70;;
29380;SDS011;16364;52.490;13.326;2023-09-19T10:00:39;4.73;;;2.50;;
29380;SDS011;16364;52.490;13.326;2023-09-19T10:03:20;6.27;;;2.43;;
29380;SDS011;16364;52.490;13.326;2023-09-19T10:05:52;2.30;;;1.83;;
29380;SDS011;16364;52.490;13.326;2023-09-19T10:08:21;7.63;;;2.17;;
29380;SDS011;16364;52.490;13.326;2023-09-19T10:10:47;4.60;;;1.83;;
29380;SDS011;16364;52.490;13.326;2023-09-19T10:13:18;6.53;;;1.80;;
29380;SDS011;16364;52.490;13.326;2023-09-19T10:15:50;3.60;;;1.90;;
29380;SDS011;16364;52.490;13.326;2023-09-19T10:18:20;6.73;;;2.60;;
29380;SDS011;16364;52.490;13.326;2023-09-19T10:20:46;4.23;;;2.93;;
29380;SDS011;16364;52.490;13.326;2023-09-19T10:23:11;5.93;;;1.87;;
29380;SDS011;16364;52.490;13.326;2023-09-19T10:25:45;6.30;;;2.93;;
29380;SDS011;16364;52.490;13.326;2023-09-19T10:28:13;3.00;;;1.90;;
29380;SDS011;16364;52.490;13.326;2023-09-19T10:30:45;4.43;;;2.10;;
29380;SDS011;16364;52.490;13.326;2023-09-19T10:33:12;4.23;;;2.77;;
29380;SDS011;16364;52.490;13.326;2023-09-19T10:35:39;4.00;;;2.10;;
29380;SDS011;16364;52.490;13.326;2023-09-19T10:38:07;2.73;;;2.27;;
29380;SDS011;16364;52.490;13.326;2023-09-19T10:40:35;2.77;;;2.00;;
29380;SDS011;16364;52.490;13.326;2023-09-19T10:43:04;2.53;;;1.97;;
29380;SDS011;16364;52.490;13.326;2023-09-19T10:45:31;2.80;;;2.20;;
29380;SDS011;16364;52.490;13.326;2023-09-19T10:47:58;2.47;;;2.20;;
29380;SDS011;16364;52.490;13.326;2023-09-19T10:50:23;10.87;;;2.30;;
29380;SDS011;16364;52.490;13.326;2023-09-19T10:52:49;4.50;;;1.93;;
29380;SDS011;16364;52.490;13.326;2023-09-19T10:55:24;9.33;;;2.57;;
29380;SDS011;16364;52.490;13.326;2023-09-19T10:57:50;4.60;;;2.13;;
29380;SDS011;16364;52.490;13.326;2023-09-19T11:00:15;2.83;;;1.90;;
29380;SDS011;16364;52.490;13.326;2023-09-19T11:05:36;5.70;;;1.80;;
29380;SDS011;16364;52.490;13.326;2023-09-19T11:08:06;2.80;;;1.97;;
29380;SDS011;16364;52.490;13.326;2023-09-19T11:10:45;4.53;;;1.80;;
29380;SDS011;16364;52.490;13.326;2023-09-19T11:13:26;3.20;;;1.63;;
29380;SDS011;16364;52.490;13.326;2023-09-19T11:26:41;5.23;;;1.70;;
29380;SDS011;16364;52.490;13.326;2023-09-19T11:29:28;4.30;;;1.50;;
29380;SDS011;16364;52.490;13.326;2023-09-19T11:31:54;2.20;;;1.90;;
29380;SDS011;16364;52.490;13.326;2023-09-19T11:37:03;2.13;;;1.50;;
29380;SDS011;16364;52.490;13.326;2023-09-19T11:39:31;3.33;;;1.40;;
29380;SDS011;16364;52.490;13.326;2023-09-19T11:41:56;6.83;;;1.40;;
29380;SDS011;16364;52.490;13.326;2023-09-19T11:44:31;3.43;;;1.60;;
29380;SDS011;16364;52.490;13.326;2023-09-19T11:47:03;2.90;;;1.50;;
29380;SDS011;16364;52.490;13.326;2023-09-19T11:49:30;2.80;;;1.97;;
29380;SDS011;16364;52.490;13.326;2023-09-19T11:51:57;3.50;;;2.00;;
29380;SDS011;16364;52.490;13.326;2023-09-19T11:54:22;4.63;;;1.80;;
29380;SDS011;16364;52.490;13.326;2023-09-19T11:56:50;2.20;;;1.20;;
29380;SDS011;16364;52.490;13.326;2023-09-19T11:59:22;3.87;;;1.57;;
29380;SDS011;16364;52.490;13.326;2023-09-19T12:01:52;2.40;;;1.57;;
29380;SDS011;16364;52.490;13.326;2023-09-19T12:06:58;2.80;;;1.60;;
29380;SDS011;16364;52.490;13.326;2023-09-19T12:09:24;2.13;;;1.30;;
29380;SDS011;16364;52.490;13.326;2023-09-19T12:11:51;2.90;;;1.40;;
29380;SDS011;16364;52.490;13.326;2023-09-19T12:14:26;3.23;;;1.53;;
29380;SDS011;16364;52.490;13.326;2023-09-19T12:16:57;3.47;;;1.50;;
29380;SDS011;16364;52.490;13.326;2023-09-19T12:19:24;3.57;;;1.50;;
29380;SDS011;16364;52.490;13.326;2023-09-19T12:21:56;3.03;;;1.50;;
29380;SDS011;16364;52.490;13.326;2023-09-19T12:24:23;3.00;;;1.30;;
29380;SDS011;16364;52.490;13.326;2023-09-19T12:26:51;2.17;;;1.20;;
29380;SDS011;16364;52.490;13.326;2023-09-19T12:29:21;2.73;;;1.43;;
29380;SDS011;16364;52.490;13.326;2023-09-19T12:31:51;1.40;;;1.07;;
29380;SDS011;16364;52.490;13.326;2023-09-19T12:34:19;2.63;;;1.30;;
29380;SDS011;16364;52.490;13.326;2023-09-19T12:36:44;2.90;;;1.37;;
29380;SDS011;16364;52.490;13.326;2023-09-19T12:39:10;2.10;;;1.20;;
29380;SDS011;16364;52.490;13.326;2023-09-19T12:41:37;2.13;;;1.40;;
29380;SDS011;16364;52.490;13.326;2023-09-19T12:44:02;3.27;;;1.43;;
29380;SDS011;16364;52.490;13.326;2023-09-19T12:46:33;2.30;;;1.23;;
29380;SDS011;16364;52.490;13.326;2023-09-19T12:49:18;2.43;;;1.20;;
29380;SDS011;16364;52.490;13.326;2023-09-19T12:51:44;3.13;;;1.20;;
29380;SDS011;16364;52.490;13.326;2023-09-19T12:54:11;2.33;;;1.50;;
29380;SDS011;16364;52.490;13.326;2023-09-19T12:56:39;4.07;;;1.40;;
29380;SDS011;16364;52.490;13.326;2023-09-19T12:59:15;2.37;;;1.30;;
29380;SDS011;16364;52.490;13.326;2023-09-19T13:01:42;2.07;;;1.70;;
29380;SDS011;16364;52.490;13.326;2023-09-19T13:04:29;4.20;;;1.33;;
29380;SDS011;16364;52.490;13.326;2023-09-19T13:06:55;3.37;;;1.30;;
29380;SDS011;16364;52.490;13.326;2023-09-19T13:09:25;2.63;;;1.50;;
29380;SDS011;16364;52.490;13.326;2023-09-19T13:11:59;2.13;;;1.40;;
29380;SDS011;16364;52.490;13.326;2023-09-19T13:14:27;4.67;;;1.43;;
29380;SDS011;16364;52.490;13.326;2023-09-19T13:25:01;3.13;;;1.30;;
29380;SDS011;16364;52.490;13.326;2023-09-19T13:27:26;3.40;;;1.67;;
29380;SDS011;16364;52.490;13.326;2023-09-19T13:29:52;1.80;;;1.40;;
29380;SDS011;16364;52.490;13.326;2023-09-19T13:32:17;1.93;;;1.40;;
29380;SDS011;16364;52.490;13.326;2023-09-19T13:34:46;2.50;;;1.50;;
29380;SDS011;16364;52.490;13.326;2023-09-19T13:37:11;2.40;;;1.20;;
29380;SDS011;16364;52.490;13.326;2023-09-19T13:39:38;3.57;;;1.40;;
29380;SDS011;16364;52.490;13.326;2023-09-19T13:42:12;1.77;;;1.30;;
29380;SDS011;16364;52.490;13.326;2023-09-19T13:44:37;6.17;;;1.10;;
29380;SDS011;16364;52.490;13.326;2023-09-19T13:47:03;5.30;;;1.30;;
29380;SDS011;16364;52.490;13.326;2023-09-19T13:49:34;1.67;;;1.47;;
29380;SDS011;16364;52.490;13.326;2023-09-19T13:52:00;1.67;;;1.30;;
29380;SDS011;16364;52.490;13.326;2023-09-19T13:54:27;6.73;;;1.47;;
29380;SDS011;16364;52.490;13.326;2023-09-19T13:56:53;4.63;;;1.37;;
29380;SDS011;16364;52.490;13.326;2023-09-19T13:59:19;3.33;;;1.47;;
29380;SDS011;16364;52.490;13.326;2023-09-19T14:01:44;2.00;;;1.30;;
29380;SDS011;16364;52.490;13.326;2023-09-19T14:04:09;2.30;;;1.30;;
29380;SDS011;16364;52.490;13.326;2023-09-19T14:06:36;1.57;;;1.40;;
29380;SDS011;16364;52.490;13.326;2023-09-19T14:09:05;6.13;;;1.50;;
29380;SDS011;16364;52.490;13.326;2023-09-19T14:11:30;2.23;;;1.20;;
29380;SDS011;16364;52.490;13.326;2023-09-19T14:13:56;2.13;;;1.10;;
29380;SDS011;16364;52.490;13.326;2023-09-19T14:16:23;2.33;;;1.20;;
29380;SDS011;16364;52.490;13.326;2023-09-19T14:18:49;5.43;;;1.40;;
29380;SDS011;16364;52.490;13.326;2023-09-19T14:21:14;2.17;;;1.20;;
29380;SDS011;16364;52.490;13.326;2023-09-19T14:23:40;2.27;;;1.10;;
29380;SDS011;16364;52.490;13.326;2023-09-19T14:26:07;2.80;;;1.43;;
29380;SDS011;16364;52.490;13.326;2023-09-19T14:28:33;1.87;;;1.60;;
29380;SDS011;16364;52.490;13.326;2023-09-19T14:31:03;4.17;;;1.30;;
29380;SDS011;16364;52.490;13.326;2023-09-19T14:33:28;3.80;;;1.27;;
29380;SDS011;16364;52.490;13.326;2023-09-19T14:35:54;3.50;;;1.90;;
29380;SDS011;16364;52.490;13.326;2023-09-19T14:38:19;2.40;;;1.43;;
29380;SDS011;16364;52.490;13.326;2023-09-19T14:40:45;1.80;;;1.33;;
29380;SDS011;16364;52.490;13.326;2023-09-19T14:43:10;5.23;;;1.40;;
29380;SDS011;16364;52.490;13.326;2023-09-19T14:45:35;2.03;;;1.20;;
29380;SDS011;16364;52.490;13.326;2023-09-19T14:48:01;3.00;;;1.40;;
29380;SDS011;16364;52.490;13.326;2023-09-19T14:50:30;4.20;;;1.43;;
29380;SDS011;16364;52.490;13.326;2023-09-19T14:52:55;2.17;;;1.17;;
29380;SDS011;16364;52.490;13.326;2023-09-19T14:55:21;3.30;;;1.37;;
29380;SDS011;16364;52.490;13.326;2023-09-19T14:57:51;9.63;;;1.60;;
29380;SDS011;16364;52.490;13.326;2023-09-19T15:00:17;4.90;;;1.60;;
29380;SDS011;16364;52.490;13.326;2023-09-19T15:02:43;2.53;;;1.40;;
29380;SDS011;16364;52.490;13.326;2023-09-19T15:05:10;4.33;;;1.30;;
29380;SDS011;16364;52.490;13.326;2023-09-19T15:07:37;3.83;;;1.30;;
29380;SDS011;16364;52.490;13.326;2023-09-19T15:10:04;3.73;;;1.60;;
29380;SDS011;16364;52.490;13.326;2023-09-19T15:12:32;3.63;;;1.40;;
29380;SDS011;16364;52.490;13.326;2023-09-19T15:14:58;9.50;;;1.57;;
29380;SDS011;16364;52.490;13.326;2023-09-19T15:17:23;4.63;;;1.40;;
29380;SDS011;16364;52.490;13.326;2023-09-19T15:19:50;3.87;;;1.50;;
29380;SDS011;16364;52.490;13.326;2023-09-19T15:22:15;2.37;;;1.50;;
29380;SDS011;16364;52.490;13.326;2023-09-19T15:24:40;4.90;;;1.73;;
29380;SDS011;16364;52.490;13.326;2023-09-19T15:27:05;2.60;;;1.60;;
29380;SDS011;16364;52.490;13.326;2023-09-19T15:29:31;2.43;;;1.53;;